KFSM/FSM METAR and TAF weather

Enter ICAO airport designator
Station Type Date Time Source
KFSM METAR 2019/08/21 02:53 UTC NOAA

KFSM 210253Z 12004KT 10SM FEW075 32/24 A3003 RMK AO2 SLP161 T03170239 53027


Station Type Date Time Source
KFSM Decoded METAR 2019/08/21 02:53 UTC NOAA

Station name not available
Aug 20, 2019 - 10:53 PM EDT / 2019.08.21 0253 UTC
Wind: from the ESE (120 degrees) at 5 MPH (4 KT):0
Visibility: 10 mile(s):0
Sky conditions: mostly clear
Temperature: 89.1 F (31.7 C)
Heat index: 99.1 F (37.3 C):1
Dew Point: 75.0 F (23.9 C)
Relative Humidity: 63%
Pressure (altimeter): 30.03 in. Hg (1016 hPa)
Pressure tendency: 0.08 inches (2.7 hPa) higher than three hours ago
ob: KFSM 210253Z 12004KT 10SM FEW075 32/24 A3003 RMK AO2 SLP161 T03170239 53027
cycle: 3

Station Type Date Time Source
KFSM TAF 2019/08/20 18:36 UTC NOAA

TAF KFSM 201733Z 2018/2118 11006KT P6SM SCT050 SCT250
FM210600 08003KT P6SM SCT250

Example: see airport list